Matsuto, Japan
Current Conditions -  °F | °C
As of 11:00 AM on Tuesday 21 Oct 2014 (Local Time) from RJNK Reporting Station
Broken Clouds Broken Clouds  
Wind Chill: 70°   Ceiling: 8000
Heat Index: 70°   Visibility: 6mi
Dew Point: 61°   Wind: 14mph
Humidity: 73%   Direction: 240°WSW
Pressure: 30"   Gusts: NA
Location:  36.52°N, 136.57°E
Report Text: RJNK 210200Z 24012KT 9999 FEW015 SCT050 BKN080 21/16 Q1016
Loading
Personal Weather Stations






























Interactive Weather Map
Tropical Storm Tracking
New forecast layout! Learn more

10-Day Weather Forecast

Advertisements
Track Severe Weather on mobile